Pretty Lady — 9HVY9 — position and weather

sailwx.info

Track history (hours):
 
Tides and Currents Weather Stations Pressure Air Temp Water Temp Dewpoint Dewpoint Depression Visibility Wind Speed Wind Dir Waves Ship Positions

Pretty Lady

Last reported at 2014-Dec-03 09:33 UTC. Time now 2014-Dec-21 06:54 UTC.
Position N 36°51' W 026°55'.
Warning: this ship's position is 17 days out of date.

Length 182 m; draft 6.9 m.

Type: Cargo ship. MMSI: 249617000.

Date/timePositionNaut miles runAvg speedWind from/ knotsBaromVisibWave heightAir tempDewpointWater temp
2014-Dec-03 09:33N 36°51' W 026°55'1211.9
2014-Dec-03 08:33N 36°56' W 026°42'1211.8
2014-Dec-03 07:34N 37°00' W 026°28'1212.1
2014-Dec-03 06:33N 37°05' W 026°14'1212.1
2014-Dec-03 05:33N 37°10' W 025°60'1212.2
2014-Dec-03 04:33N 37°15' W 025°46'1212.3
2014-Dec-03 03:33N 37°19' W 025°31'1211.9
2014-Dec-03 02:34N 37°24' W 025°18'1211.9
2014-Dec-03 01:33N 37°29' W 025°04'1111.5
2014-Dec-03 00:33N 37°34' W 024°51'1212.0
2014-Dec-02 23:34N 37°40' W 024°38'1211.6
2014-Dec-02 22:34N 37°45' W 024°25'1211.7
2014-Dec-02 21:34N 37°50' W 024°11'1211.9
2014-Dec-02 20:33N 37°56' W 023°58'1211.6
2014-Dec-02 19:33N 38°01' W 023°45'3511.7
2014-Dec-02 16:33N 38°18' W 023°05'  
2014-Nov-29 16:33N 43°40' W 006°13'11 0.4
2014-Nov-28 13:31N 43°37' W 005°58'4 3.9
2014-Nov-28 12:33N 43°39' W 006°03'5 5.1
2014-Nov-28 11:33N 43°40' W 006°10'9 6.1
2014-Nov-28 10:05N 43°41' W 006°22'36210.2
2014-Nov-26 22:33N 38°12' W 009°39'1313.4
2014-Nov-26 21:33N 37°59' W 009°37'1313.2
2014-Nov-26 20:33N 37°46' W 009°34'1313.1
2014-Nov-26 19:33N 37°33' W 009°31'6111.2
2014-Nov-26 14:07N 36°41' W 008°50'812.7
2014-Nov-26 13:28N 36°39' W 008°40'15312.4
2014-Nov-26 01:10N 35°58' W 005°37'711.2
2014-Nov-26 00:32N 36°00' W 005°29'9 8.8
2014-Nov-25 23:33N 36°07' W 005°23'1 0.4
2014-Nov-25 21:10N 36°08' W 005°22'0 0.0
2014-Nov-25 20:16N 36°08' W 005°22'0 0.1
2014-Nov-25 19:31N 36°08' W 005°22'0 0.0
2014-Nov-25 18:31N 36°08' W 005°22'0 0.0
2014-Nov-25 16:31N 36°08' W 005°22'2 2.0
2014-Nov-25 15:32N 36°06' W 005°21'59212.8
2014-Nov-23 17:07N 37°35' E 006°50'913.4
2014-Nov-23 16:25N 37°35' E 007°02'3913.4
2014-Nov-23 13:33N 37°37' E 007°50'1313.1
2014-Nov-23 12:33N 37°39' E 008°07'1312.9
2014-Nov-23 11:31N 37°41' E 008°23'1412.7
2014-Nov-23 10:24N 37°42' E 008°41'  
Track history (hours):
 
Tides and Currents Weather Stations Pressure Air Temp Water Temp Dewpoint Dewpoint Depression Visibility Wind Speed Wind Dir Waves Ship Positions

Pretty Lady

Last reported at 2014-Dec-03 09:33 UTC. Time now 2014-Dec-21 06:54 UTC.
Position N 36°51' W 026°55'.
Warning: this ship's position is 17 days out of date.

Length 182 m; draft 6.9 m.

Type: Cargo ship. MMSI: 249617000.

Date/timePositionNaut miles runAvg speedWind from/ knotsBaromVisibWave heightAir tempDewpointWater temp
2014-Dec-03 09:33N 36°51' W 026°55'1211.9
2014-Dec-03 08:33N 36°56' W 026°42'1211.8
2014-Dec-03 07:34N 37°00' W 026°28'1212.1
2014-Dec-03 06:33N 37°05' W 026°14'1212.1
2014-Dec-03 05:33N 37°10' W 025°60'1212.2
2014-Dec-03 04:33N 37°15' W 025°46'1212.3
2014-Dec-03 03:33N 37°19' W 025°31'1211.9
2014-Dec-03 02:34N 37°24' W 025°18'1211.9
2014-Dec-03 01:33N 37°29' W 025°04'1111.5
2014-Dec-03 00:33N 37°34' W 024°51'1212.0
2014-Dec-02 23:34N 37°40' W 024°38'1211.6
2014-Dec-02 22:34N 37°45' W 024°25'1211.7
2014-Dec-02 21:34N 37°50' W 024°11'1211.9
2014-Dec-02 20:33N 37°56' W 023°58'1211.6
2014-Dec-02 19:33N 38°01' W 023°45'3511.7
2014-Dec-02 16:33N 38°18' W 023°05'  
2014-Nov-29 16:33N 43°40' W 006°13'11 0.4
2014-Nov-28 13:31N 43°37' W 005°58'4 3.9
2014-Nov-28 12:33N 43°39' W 006°03'5 5.1
2014-Nov-28 11:33N 43°40' W 006°10'9 6.1
2014-Nov-28 10:05N 43°41' W 006°22'36210.2
2014-Nov-26 22:33N 38°12' W 009°39'1313.4
2014-Nov-26 21:33N 37°59' W 009°37'1313.2
2014-Nov-26 20:33N 37°46' W 009°34'1313.1
2014-Nov-26 19:33N 37°33' W 009°31'6111.2
2014-Nov-26 14:07N 36°41' W 008°50'812.7
2014-Nov-26 13:28N 36°39' W 008°40'15312.4
2014-Nov-26 01:10N 35°58' W 005°37'711.2
2014-Nov-26 00:32N 36°00' W 005°29'9 8.8
2014-Nov-25 23:33N 36°07' W 005°23'1 0.4
2014-Nov-25 21:10N 36°08' W 005°22'0 0.0
2014-Nov-25 20:16N 36°08' W 005°22'0 0.1
2014-Nov-25 19:31N 36°08' W 005°22'0 0.0
2014-Nov-25 18:31N 36°08' W 005°22'0 0.0
2014-Nov-25 16:31N 36°08' W 005°22'2 2.0
2014-Nov-25 15:32N 36°06' W 005°21'59212.8
2014-Nov-23 17:07N 37°35' E 006°50'913.4
2014-Nov-23 16:25N 37°35' E 007°02'3913.4
2014-Nov-23 13:33N 37°37' E 007°50'1313.1
2014-Nov-23 12:33N 37°39' E 008°07'1312.9
2014-Nov-23 11:31N 37°41' E 008°23'1412.7
2014-Nov-23 10:24N 37°42' E 008°41'  

Dump ship's entire track history